^^
Station Historical Data
Daily Summary for January 11, 2018 Units:  Both    English   Metric
« Previous Day
Next Day »
Daily Weekly Monthly Yearly Custom
  High: Low: Average:
Temperature: TemperatureC °F /  -17.8 °C -8.1 °F /  -22.3 °C -4.5 °F /  -20.3 °C
Dew Point: DewpointC °F /  -17.8 °C -9.2 °F /  -22.9 °C -5.4 °F /  -20.8 °C
Humidity: Humidity% 92% 93%
Wind Speed: WindSpeedKMHmph /  0km/h - 0.4mph /  0.6km/h
Wind Gust: WindSpeedGustKMHmph /  0km/h - -
Wind- - East
Pressure: PressurehPa in /  0 hPa 1024.6 in /  34693 hPa -
Precipitation: 0.0 in /  0 mm    
Historical Graphs
 
 
Tabular Data for January 11, 2018
Time Temperature Dew Point Pressure Wind Wind Speed Wind Gust Humidity Rainfall Rate (Hourly) solar Conditions
TemperatureC °F /  -17.8 °C DewpointC °F /  -17.8 °C PressurehPain /  0hPa Calm     Humidity% HourlyPrecipMMin /  0mm SoftwareType W/m2 Conditions
02:20 -6.5 °F /  -21.4 °C -7.4 °F /  -21.9 °C 1024.9in /  34703.1hPa Calm     93% 0.0in /  0mm WeatherDisplay:10.37 W/m2 FEW
02:25 -6.6 °F /  -21.4 °C -7.5 °F /  -21.9 °C 1024.9in /  34703.1hPa Calm     93% 0.0in /  0mm WeatherDisplay:10.37 W/m2 FEW
02:30 -6.6 °F /  -21.4 °C -7.6 °F /  -22 °C 1024.9in /  34703.1hPa Calm     93% 0.0in /  0mm WeatherDisplay:10.37 W/m2 FEW
02:36 -6.7 °F /  -21.5 °C -7.6 °F /  -22 °C 1024.9in /  34703.1hPa Calm     93% 0.0in /  0mm WeatherDisplay:10.37 W/m2 FEW
02:41 -6.7 °F /  -21.5 °C -7.6 °F /  -22 °C 1024.9in /  34703.1hPa Calm     93% 0.0in /  0mm WeatherDisplay:10.37 W/m2 FEW
02:46 -6.7 °F /  -21.5 °C -7.6 °F /  -22 °C 1024.9in /  34703.1hPa Calm     93% 0.0in /  0mm WeatherDisplay:10.37 W/m2 FEW
02:56 -6.7 °F /  -21.5 °C -7.7 °F /  -22.1 °C 1024.9in /  34703.1hPa NNW 0.6mph /  1km/h 3.7mph /  6km/h 93% 0.0in /  0mm WeatherDisplay:10.37 W/m2 FEW
03:01 -6.7 °F /  -21.5 °C -7.6 °F /  -22 °C 1024.9in /  34703.1hPa Calm     93% 0.0in /  0mm WeatherDisplay:10.37 W/m2 FEW
03:06 -6.7 °F /  -21.5 °C -7.6 °F /  -22 °C 1024.6in /  34693hPa Calm     93% 0.0in /  0mm WeatherDisplay:10.37 W/m2 FEW
03:09 -6.7 °F /  -21.5 °C -7.6 °F /  -22 °C 1024.6in /  34693hPa Calm     93% 0.0in /  0mm WeatherDisplay:10.37 W/m2 FEW
03:10 -6.7 °F /  -21.5 °C -7.6 °F /  -22 °C 1024.6in /  34693hPa Calm     93% 0.0in /  0mm WeatherDisplay:10.37 W/m2 FEW
03:20 -6.6 °F /  -21.4 °C -7.6 °F /  -22 °C 1024.6in /  34693hPa Calm     93% 0.0in /  0mm WeatherDisplay:10.37 W/m2 FEW
03:21 -6.6 °F /  -21.4 °C -7.6 °F /  -22 °C 1024.6in /  34693hPa Calm     93% 0.0in /  0mm WeatherDisplay:10.37 W/m2 FEW
03:26 -6.6 °F /  -21.4 °C -7.6 °F /  -22 °C 1024.6in /  34693hPa Calm     93% 0.0in /  0mm WeatherDisplay:10.37 W/m2 FEW
03:36 -6.7 °F /  -21.5 °C -7.6 °F /  -22 °C 1024.9in /  34703.1hPa Calm     93% 0.0in /  0mm WeatherDisplay:10.37 W/m2 FEW
03:41 -6.7 °F /  -21.5 °C -7.7 °F /  -22.1 °C 1024.9in /  34703.1hPa Calm     93% 0.0in /  0mm WeatherDisplay:10.37 W/m2 FEW
03:42 -6.7 °F /  -21.5 °C -7.7 °F /  -22.1 °C 1024.9in /  34703.1hPa Calm     93% 0.0in /  0mm WeatherDisplay:10.37 W/m2 FEW
03:44 -6.7 °F /  -21.5 °C -7.7 °F /  -22.1 °C 1024.9in /  34703.1hPa Calm     93% 0.0in /  0mm WeatherDisplay:10.37 W/m2 FEW
03:49 -6.8 °F /  -21.6 °C -7.7 °F /  -22.1 °C 1024.9in /  34703.1hPa Calm     93% 0.0in /  0mm WeatherDisplay:10.37 W/m2 FEW
03:55 -6.8 °F /  -21.6 °C -7.8 °F /  -22.1 °C 1024.9in /  34703.1hPa Calm     93% 0.0in /  0mm WeatherDisplay:10.37 W/m2 FEW
04:02 -6.8 °F /  -21.6 °C -7.8 °F /  -22.1 °C 1024.9in /  34703.1hPa Calm     93% 0.0in /  0mm WeatherDisplay:10.37 W/m2 FEW
04:07 -6.9 °F /  -21.6 °C -7.8 °F /  -22.1 °C 1024.9in /  34703.1hPa Calm     93% 0.0in /  0mm WeatherDisplay:10.37 W/m2 FEW
04:12 -6.9 °F /  -21.6 °C -7.8 °F /  -22.1 °C 1024.9in /  34703.1hPa Calm     93% 0.0in /  0mm WeatherDisplay:10.37 W/m2 FEW
04:17 -6.9 °F /  -21.6 °C -7.8 °F /  -22.1 °C 1024.9in /  34703.1hPa Calm     93% 0.0in /  0mm WeatherDisplay:10.37 W/m2 FEW
04:25 -6.9 °F /  -21.6 °C -7.8 °F /  -22.1 °C 1024.9in /  34703.1hPa Calm     93% 0.0in /  0mm WeatherDisplay:10.37 W/m2 FEW
04:39 -7.0 °F /  -21.7 °C -7.9 °F /  -22.2 °C 1024.9in /  34703.1hPa Calm     93% 0.0in /  0mm WeatherDisplay:10.37 W/m2 FEW
04:44 -7.1 °F /  -21.7 °C -8.0 °F /  -22.2 °C 1024.9in /  34703.1hPa Calm     93% 0.0in /  0mm WeatherDisplay:10.37 W/m2 FEW
05:00 -7.2 °F /  -21.8 °C -8.2 °F /  -22.3 °C 1024.9in /  34703.1hPa Calm     93% 0.0in /  0mm WeatherDisplay:10.37 W/m2 FEW
05:05 -7.2 °F /  -21.8 °C -8.2 °F /  -22.3 °C 1024.9in /  34703.1hPa Calm     93% 0.0in /  0mm WeatherDisplay:10.37 W/m2 FEW
05:14 -7.3 °F /  -21.8 °C -8.3 °F /  -22.4 °C 1024.9in /  34703.1hPa Calm     93% 0.0in /  0mm WeatherDisplay:10.37 W/m2 FEW
05:24 -7.5 °F /  -21.9 °C -8.4 °F /  -22.4 °C 1025.3in /  34716.7hPa Calm     93% 0.0in /  0mm WeatherDisplay:10.37 W/m2 FEW
05:34 -7.7 °F /  -22.1 °C -8.6 °F /  -22.6 °C 1025.3in /  34716.7hPa Calm     93% 0.0in /  0mm WeatherDisplay:10.37 W/m2 FEW
05:42 -7.7 °F /  -22.1 °C -8.8 °F /  -22.7 °C 1025.3in /  34716.7hPa Calm     92% 0.0in /  0mm WeatherDisplay:10.37 W/m2 FEW
05:47 -7.8 °F /  -22.1 °C -8.8 °F /  -22.7 °C 1025.3in /  34716.7hPa Calm     92% 0.0in /  0mm WeatherDisplay:10.37 W/m2 FEW
05:52 -7.8 °F /  -22.1 °C -8.9 °F /  -22.7 °C 1025.3in /  34716.7hPa Calm     92% 0.0in /  0mm WeatherDisplay:10.37 W/m2 FEW
05:58 -7.9 °F /  -22.2 °C -9.0 °F /  -22.8 °C 1025.3in /  34716.7hPa Calm     92% 0.0in /  0mm WeatherDisplay:10.37 W/m2 FEW
06:00 -7.9 °F /  -22.2 °C -8.9 °F /  -22.7 °C 1025.6in /  34726.8hPa Calm     93% 0.0in /  0mm WeatherDisplay:10.37 W/m2 FEW
06:06 -8.0 °F /  -22.2 °C -8.9 °F /  -22.7 °C 1025.6in /  34726.8hPa Calm     93% 0.0in /  0mm WeatherDisplay:10.37 W/m2 FEW
06:11 -8.1 °F /  -22.3 °C -9.1 °F /  -22.8 °C 1025.6in /  34726.8hPa Calm     92% 0.0in /  0mm WeatherDisplay:10.37 W/m2 FEW
06:16 -8.1 °F /  -22.3 °C -9.2 °F /  -22.9 °C 1025.6in /  34726.8hPa Calm     92% 0.0in /  0mm WeatherDisplay:10.37 W/m2 FEW
06:21 -8.1 °F /  -22.3 °C -9.2 °F /  -22.9 °C 1025.6in /  34726.8hPa Calm     92% 0.0in /  0mm WeatherDisplay:10.37 W/m2 FEW
06:26 -8.1 °F /  -22.3 °C -9.1 °F /  -22.8 °C 1025.6in /  34726.8hPa Calm     93% 0.0in /  0mm WeatherDisplay:10.37 W/m2 FEW
06:31 -8.1 °F /  -22.3 °C -9.0 °F /  -22.8 °C 1025.6in /  34726.8hPa Calm     93% 0.0in /  0mm WeatherDisplay:10.37 W/m2 FEW
06:36 -8.1 °F /  -22.3 °C -9.1 °F /  -22.8 °C 1025.6in /  34726.8hPa Calm     92% 0.0in /  0mm WeatherDisplay:10.37 W/m2 FEW
06:45 -8.0 °F /  -22.2 °C -8.9 °F /  -22.7 °C 1025.6in /  34726.8hPa Calm     93% 0.0in /  0mm WeatherDisplay:10.37 W/m2 FEW
06:50 -7.9 °F /  -22.2 °C -8.8 °F /  -22.7 °C 1025.6in /  34726.8hPa Calm     93% 0.0in /  0mm WeatherDisplay:10.37 W/m2 FEW
06:55 -7.8 °F /  -22.1 °C -8.7 °F /  -22.6 °C 1026.0in /  34740.4hPa Calm     93% 0.0in /  0mm WeatherDisplay:10.37 W/m2 FEW
07:04 -7.5 °F /  -21.9 °C -8.4 °F /  -22.4 °C 1026.0in /  34740.4hPa Calm     93% 0.0in /  0mm WeatherDisplay:10.37 W/m2 FEW
07:09 -7.3 °F /  -21.8 °C -8.3 °F /  -22.4 °C 1026.0in /  34740.4hPa Calm     93% 0.0in /  0mm WeatherDisplay:10.37 W/m2 FEW
07:14 -7.2 °F /  -21.8 °C -8.2 °F /  -22.3 °C 1026.0in /  34740.4hPa Calm     93% 0.0in /  0mm WeatherDisplay:10.37 W/m2 FEW
07:19 -7.1 °F /  -21.7 °C -8.1 °F /  -22.3 °C 1026.0in /  34740.4hPa Calm     93% 0.0in /  0mm WeatherDisplay:10.37 W/m2 FEW
07:24 -7.0 °F /  -21.7 °C -7.9 °F /  -22.2 °C 1026.0in /  34740.4hPa Calm     93% 0.0in /  0mm WeatherDisplay:10.37 W/m2 FEW
07:29 -6.9 °F /  -21.6 °C -7.9 °F /  -22.2 °C 1026.3in /  34750.5hPa Calm     93% 0.0in /  0mm WeatherDisplay:10.37 W/m2 FEW
07:34 -6.8 °F /  -21.6 °C -7.8 °F /  -22.1 °C 1026.3in /  34750.5hPa Calm     93% 0.0in /  0mm WeatherDisplay:10.37 W/m2 FEW
07:39 -6.8 °F /  -21.6 °C -7.7 °F /  -22.1 °C 1026.3in /  34750.5hPa Calm   3.7mph /  6km/h 93% 0.0in /  0mm WeatherDisplay:10.37 W/m2 FEW
07:44 -6.7 °F /  -21.5 °C -7.7 °F /  -22.1 °C 1026.3in /  34750.5hPa Calm     93% 0.0in /  0mm WeatherDisplay:10.37 W/m2 FEW
07:54 -6.7 °F /  -21.5 °C -7.6 °F /  -22 °C 1026.3in /  34750.5hPa Calm     93% 0.0in /  0mm WeatherDisplay:10.37 W/m2 FEW
07:59 -6.7 °F /  -21.5 °C -7.6 °F /  -22 °C 1026.6in /  34760.7hPa Calm     93% 0.0in /  0mm WeatherDisplay:10.37 W/m2 FEW
08:10 -6.7 °F /  -21.5 °C -7.7 °F /  -22.1 °C 1026.6in /  34760.7hPa Calm     93% 0.0in /  0mm WeatherDisplay:10.37 W/m2 FEW
08:16 -6.7 °F /  -21.5 °C -7.6 °F /  -22 °C 1026.6in /  34760.7hPa ENE 3.2mph /  5.1km/h 5.6mph /  9km/h 93% 0.0in /  0mm WeatherDisplay:10.37 W/m2 FEW
08:26 -6.5 °F /  -21.4 °C -7.4 °F /  -21.9 °C 1027.0in /  34774.2hPa Calm     93% 0.0in /  0mm WeatherDisplay:10.37 W/m2 FEW
08:31 -6.4 °F /  -21.3 °C -7.4 °F /  -21.9 °C 1027.0in /  34774.2hPa Calm     93% 0.0in /  0mm WeatherDisplay:10.37 W/m2 FEW
08:36 -6.4 °F /  -21.3 °C -7.3 °F /  -21.8 °C 1027.0in /  34774.2hPa Calm   3.2mph /  5.1km/h 93% 0.0in /  0mm WeatherDisplay:10.37 W/m2 FEW
08:41 -6.3 °F /  -21.3 °C -7.2 °F /  -21.8 °C 1027.0in /  34774.2hPa ENE 4.5mph /  7.2km/h 7.4mph /  11.9km/h 93% 0.0in /  0mm WeatherDisplay:10.37 W/m2 FEW
08:48 -6.1 °F /  -21.2 °C -7.0 °F /  -21.7 °C 1027.0in /  34774.2hPa ESE 1.1mph /  1.8km/h 5.6mph /  9km/h 93% 0.0in /  0mm WeatherDisplay:10.37 W/m2 FEW
08:56 -6.0 °F /  -21.1 °C -6.8 °F /  -21.6 °C 1027.3in /  34784.4hPa Calm     94% 0.0in /  0mm WeatherDisplay:10.37 W/m2 FEW
09:03 -5.9 °F /  -21.1 °C -6.7 °F /  -21.5 °C 1027.3in /  34784.4hPa ENE 1.6mph /  2.6km/h 4.8mph /  7.7km/h 94% 0.0in /  0mm WeatherDisplay:10.37 W/m2 FEW
09:18 -5.8 °F /  -21 °C -6.7 °F /  -21.5 °C 1027.7in /  34797.9hPa Calm   3.7mph /  6km/h 93% 0.0in /  0mm WeatherDisplay:10.37 W/m2 FEW
09:27 -5.7 °F /  -20.9 °C -6.7 °F /  -21.5 °C 1027.7in /  34797.9hPa Calm     93% 0.0in /  0mm WeatherDisplay:10.37 W/m2 FEW
09:32 -5.7 °F /  -20.9 °C -6.5 °F /  -21.4 °C 1027.7in /  34797.9hPa ENE 3.9mph /  6.3km/h 5.6mph /  9km/h 94% 0.0in /  0mm WeatherDisplay:10.37 W/m2 FEW
09:37 -5.6 °F /  -20.9 °C -6.4 °F /  -21.3 °C 1027.7in /  34797.9hPa Calm     94% 0.0in /  0mm WeatherDisplay:10.37 W/m2 FEW
09:43 -5.6 °F /  -20.9 °C -6.4 °F /  -21.3 °C 1027.7in /  34797.9hPa Calm     94% 0.0in /  0mm WeatherDisplay:10.37 W/m2 FEW
09:50 -5.5 °F /  -20.8 °C -6.3 °F /  -21.3 °C 1027.7in /  34797.9hPa Calm     94% 0.0in /  0mm WeatherDisplay:10.37 W/m2 FEW
09:55 -5.4 °F /  -20.8 °C -6.3 °F /  -21.3 °C 1027.7in /  34797.9hPa Calm   5.6mph /  9km/h 94% 0.0in /  0mm WeatherDisplay:10.37 W/m2 FEW
10:00 -5.4 °F /  -20.8 °C -6.3 °F /  -21.3 °C 1028.0in /  34808.1hPa Calm     94% 0.0in /  0mm WeatherDisplay:10.37 W/m2 FEW
10:05 -5.3 °F /  -20.7 °C -6.3 °F /  -21.3 °C 1028.0in /  34808.1hPa Calm     93% 0.0in /  0mm WeatherDisplay:10.37 W/m2 FEW
10:10 -5.3 °F /  -20.7 °C -6.1 °F /  -21.2 °C 1028.0in /  34808.1hPa Calm     94% 0.0in /  0mm WeatherDisplay:10.37 W/m2 FEW
10:19 -5.2 °F /  -20.7 °C -6.0 °F /  -21.1 °C 1028.0in /  34808.1hPa Calm     94% 0.0in /  0mm WeatherDisplay:10.37 W/m2 FEW
10:24 -5.1 °F /  -20.6 °C -5.9 °F /  -21.1 °C 1028.3in /  34818.2hPa ENE 1.9mph /  3.1km/h 3.7mph /  6km/h 94% 0.0in /  0mm WeatherDisplay:10.37 W/m2 FEW
10:43 -4.9 °F /  -20.5 °C -5.8 °F /  -21 °C 1028.3in /  34818.2hPa ENE 1.8mph /  2.9km/h 3.2mph /  5.1km/h 94% 0.0in /  0mm WeatherDisplay:10.37 W/m2 FEW
10:53 -4.9 °F /  -20.5 °C -5.7 °F /  -20.9 °C 1028.7in /  34831.8hPa Calm     94% 0.0in /  0mm WeatherDisplay:10.37 W/m2 FEW
11:01 -4.8 °F /  -20.4 °C -5.7 °F /  -20.9 °C 1028.7in /  34831.8hPa Calm   5.6mph /  9km/h 94% 0.0in /  0mm WeatherDisplay:10.37 W/m2 FEW
11:06 -4.8 °F /  -20.4 °C -5.7 °F /  -20.9 °C 1029.0in /  34841.9hPa ENE 1.3mph /  2.1km/h 7.4mph /  11.9km/h 94% 0.0in /  0mm WeatherDisplay:10.37 W/m2 FEW
11:11 -4.8 °F /  -20.4 °C -5.7 °F /  -20.9 °C 1029.0in /  34841.9hPa ENE 1.1mph /  1.8km/h 5.6mph /  9km/h 94% 0.0in /  0mm WeatherDisplay:10.37 W/m2 FEW
11:19 -4.7 °F /  -20.4 °C -5.6 °F /  -20.9 °C 1029.0in /  34841.9hPa ENE 3.9mph /  6.3km/h 5.6mph /  9km/h 94% 0.0in /  0mm WeatherDisplay:10.37 W/m2 FEW
11:30 -4.7 °F /  -20.4 °C -5.5 °F /  -20.8 °C 1029.0in /  34841.9hPa ENE 2.3mph /  3.7km/h 5.6mph /  9km/h 94% 0.0in /  0mm WeatherDisplay:10.37 W/m2 FEW
11:35 -4.6 °F /  -20.3 °C -5.4 °F /  -20.8 °C 1029.0in /  34841.9hPa ENE 2.9mph /  4.7km/h 7.4mph /  11.9km/h 94% 0.0in /  0mm WeatherDisplay:10.37 W/m2 FEW
11:40 -4.6 °F /  -20.3 °C -5.4 °F /  -20.8 °C 1029.0in /  34841.9hPa ENE 3.2mph /  5.1km/h 7.4mph /  11.9km/h 94% 0.0in /  0mm WeatherDisplay:10.37 W/m2 FEW
11:49 -4.5 °F /  -20.3 °C -5.3 °F /  -20.7 °C 1029.0in /  34841.9hPa ESE 0.8mph /  1.3km/h 9.3mph /  15km/h 94% 0.0in /  0mm WeatherDisplay:10.37 W/m2 FEW
11:54 -4.5 °F /  -20.3 °C -5.3 °F /  -20.7 °C 1029.0in /  34841.9hPa East 1.6mph /  2.6km/h 5.6mph /  9km/h 94% 0.0in /  0mm WeatherDisplay:10.37 W/m2 FEW
11:59 -4.4 °F /  -20.2 °C -5.3 °F /  -20.7 °C 1029.0in /  34841.9hPa Calm     94% 0.0in /  0mm WeatherDisplay:10.37 W/m2 FEW
12:04 -4.4 °F /  -20.2 °C -5.3 °F /  -20.7 °C 1029.0in /  34841.9hPa Calm     94% 0.0in /  0mm WeatherDisplay:10.37 W/m2 FEW
12:09 -4.4 °F /  -20.2 °C -5.2 °F /  -20.7 °C 1029.0in /  34841.9hPa Calm   1.6mph /  2.6km/h 94% 0.0in /  0mm WeatherDisplay:10.37 W/m2 FEW
12:14 -4.3 °F /  -20.2 °C -5.1 °F /  -20.6 °C 1029.3in /  34852.1hPa Calm     94% 0.0in /  0mm WeatherDisplay:10.37 W/m2 FEW
12:19 -4.3 °F /  -20.2 °C -5.1 °F /  -20.6 °C 1029.0in /  34841.9hPa East 0.2mph /  0.3km/h 3.7mph /  6km/h 94% 0.0in /  0mm WeatherDisplay:10.37 W/m2 FEW
12:36 -4.1 °F /  -20.1 °C -4.9 °F /  -20.5 °C 1029.0in /  34841.9hPa East 0.5mph /  0.8km/h 5.6mph /  9km/h 94% 0.0in /  0mm WeatherDisplay:10.37 W/m2 FEW
12:45 -4.0 °F /  -20 °C -4.8 °F /  -20.4 °C 1029.3in /  34852.1hPa East 3.1mph /  5km/h 5.6mph /  9km/h 94% 0.0in /  0mm WeatherDisplay:10.37 W/m2 FEW
13:01 -3.8 °F /  -19.9 °C -4.7 °F /  -20.4 °C 1029.3in /  34852.1hPa Calm     94% 0.0in /  0mm WeatherDisplay:10.37 W/m2 FEW
13:06 -3.8 °F /  -19.9 °C -4.6 °F /  -20.3 °C 1029.3in /  34852.1hPa Calm     94% 0.0in /  0mm WeatherDisplay:10.37 W/m2 FEW
13:16 -3.7 °F /  -19.8 °C -4.6 °F /  -20.3 °C 1029.3in /  34852.1hPa Calm     94% 0.0in /  0mm WeatherDisplay:10.37 W/m2 FEW
13:21 -3.7 °F /  -19.8 °C -4.5 °F /  -20.3 °C 1029.3in /  34852.1hPa Calm     94% 0.0in /  0mm WeatherDisplay:10.37 W/m2 FEW
13:26 -3.7 °F /  -19.8 °C -4.5 °F /  -20.3 °C 1029.3in /  34852.1hPa East 0.2mph /  0.3km/h 3.2mph /  5.1km/h 94% 0.0in /  0mm WeatherDisplay:10.37 W/m2 FEW
13:33 -3.6 °F /  -19.8 °C -4.4 °F /  -20.2 °C 1029.7in /  34865.6hPa Calm     94% 0.0in /  0mm WeatherDisplay:10.37 W/m2 FEW
13:54 -3.4 °F /  -19.7 °C -4.3 °F /  -20.2 °C 1029.7in /  34865.6hPa Calm     94% 0.0in /  0mm WeatherDisplay:10.37 W/m2 FEW
14:00 -3.4 °F /  -19.7 °C -4.2 °F /  -20.1 °C 1029.7in /  34865.6hPa Calm   1.9mph /  3.1km/h 94% 0.0in /  0mm WeatherDisplay:10.37 W/m2 FEW
14:10 -3.3 °F /  -19.6 °C -4.1 °F /  -20.1 °C 1029.7in /  34865.6hPa East 1.0mph /  1.6km/h   94% 0.0in /  0mm WeatherDisplay:10.37 W/m2 FEW
14:16 -3.3 °F /  -19.6 °C -4.1 °F /  -20.1 °C 1029.7in /  34865.6hPa East 2.4mph /  3.9km/h 3.7mph /  6km/h 94% 0.0in /  0mm WeatherDisplay:10.37 W/m2 FEW
14:21 -3.3 °F /  -19.6 °C -4.1 °F /  -20.1 °C 1029.7in /  34865.6hPa East 1.9mph /  3.1km/h 1.9mph /  3.1km/h 94% 0.0in /  0mm WeatherDisplay:10.37 W/m2 FEW
14:26 -3.2 °F /  -19.6 °C -4.1 °F /  -20.1 °C 1029.7in /  34865.6hPa Calm     94% 0.0in /  0mm WeatherDisplay:10.37 W/m2 FEW
14:32 -3.2 °F /  -19.6 °C -4.0 °F /  -20 °C 1029.7in /  34865.6hPa Calm     94% 0.0in /  0mm WeatherDisplay:10.37 W/m2 FEW
14:37 -3.2 °F /  -19.6 °C -4.0 °F /  -20 °C 1030.0in /  34875.8hPa ENE 2.3mph /  3.7km/h 5.6mph /  9km/h 94% 0.0in /  0mm WeatherDisplay:10.37 W/m2 FEW
14:42 -3.1 °F /  -19.5 °C -3.9 °F /  -19.9 °C 1030.0in /  34875.8hPa Calm     94% 0.0in /  0mm WeatherDisplay:10.37 W/m2 FEW
14:47 -3.1 °F /  -19.5 °C -3.9 °F /  -19.9 °C 1030.0in /  34875.8hPa Calm     94% 0.0in /  0mm WeatherDisplay:10.37 W/m2 FEW
14:52 -3.1 °F /  -19.5 °C -3.9 °F /  -19.9 °C 1030.0in /  34875.8hPa ENE 1.1mph /  1.8km/h 5.6mph /  9km/h 94% 0.0in /  0mm WeatherDisplay:10.37 W/m2 FEW
14:57 -3.1 °F /  -19.5 °C -3.9 °F /  -19.9 °C 1030.0in /  34875.8hPa Calm     94% 0.0in /  0mm WeatherDisplay:10.37 W/m2 FEW
15:02 -3.1 °F /  -19.5 °C -3.9 °F /  -19.9 °C 1030.0in /  34875.8hPa ENE 0.3mph /  0.5km/h 3.7mph /  6km/h 94% 0.0in /  0mm WeatherDisplay:10.37 W/m2 FEW
15:07 -3.0 °F /  -19.4 °C -3.8 °F /  -19.9 °C 1030.0in /  34875.8hPa Calm     94% 0.0in /  0mm WeatherDisplay:10.37 W/m2 FEW
15:12 -3.0 °F /  -19.4 °C -3.8 °F /  -19.9 °C 1030.0in /  34875.8hPa Calm     94% 0.0in /  0mm WeatherDisplay:10.37 W/m2 FEW
15:17 -3.0 °F /  -19.4 °C -3.8 °F /  -19.9 °C 1030.4in /  34889.3hPa Calm     94% 0.0in /  0mm WeatherDisplay:10.37 W/m2 FEW
15:22 -2.9 °F /  -19.4 °C -3.8 °F /  -19.9 °C 1030.4in /  34889.3hPa Calm     94% 0.0in /  0mm WeatherDisplay:10.37 W/m2 FEW
15:27 -2.9 °F /  -19.4 °C -3.8 °F /  -19.9 °C 1030.4in /  34889.3hPa ENE 0.5mph /  0.8km/h 3.7mph /  6km/h 94% 0.0in /  0mm WeatherDisplay:10.37 W/m2 FEW
15:32 -2.9 °F /  -19.4 °C -3.8 °F /  -19.9 °C 1030.4in /  34889.3hPa ENE 1.6mph /  2.6km/h 3.7mph /  6km/h 94% 0.0in /  0mm WeatherDisplay:10.37 W/m2 FEW
15:37 -2.9 °F /  -19.4 °C -3.7 °F /  -19.8 °C 1030.4in /  34889.3hPa ENE 1.0mph /  1.6km/h 3.7mph /  6km/h 94% 0.0in /  0mm WeatherDisplay:10.37 W/m2 FEW
15:42 -2.9 °F /  -19.4 °C -3.7 °F /  -19.8 °C 1030.4in /  34889.3hPa Calm     94% 0.0in /  0mm WeatherDisplay:10.37 W/m2 FEW
15:47 -2.8 °F /  -19.3 °C -3.7 °F /  -19.8 °C 1030.4in /  34889.3hPa Calm     94% 0.0in /  0mm WeatherDisplay:10.37 W/m2 FEW
15:52 -2.8 °F /  -19.3 °C -3.7 °F /  -19.8 °C 1030.4in /  34889.3hPa Calm     94% 0.0in /  0mm WeatherDisplay:10.37 W/m2 FEW
15:57 -2.8 °F /  -19.3 °C -3.7 °F /  -19.8 °C 1030.4in /  34889.3hPa ENE 1.9mph /  3.1km/h 3.7mph /  6km/h 94% 0.0in /  0mm WeatherDisplay:10.37 W/m2 FEW
16:06 -2.8 °F /  -19.3 °C -3.7 °F /  -19.8 °C 1030.7in /  34899.5hPa Calm     94% 0.0in /  0mm WeatherDisplay:10.37 W/m2 FEW
16:11 -2.8 °F /  -19.3 °C -3.7 °F /  -19.8 °C 1030.7in /  34899.5hPa Calm     94% 0.0in /  0mm WeatherDisplay:10.37 W/m2 FEW
16:16 -2.8 °F /  -19.3 °C -3.7 °F /  -19.8 °C 1030.7in /  34899.5hPa Calm     94% 0.0in /  0mm WeatherDisplay:10.37 W/m2 FEW
16:21 -2.8 °F /  -19.3 °C -3.7 °F /  -19.8 °C 1030.7in /  34899.5hPa Calm     94% 0.0in /  0mm WeatherDisplay:10.37 W/m2 FEW
16:26 -2.8 °F /  -19.3 °C -3.6 °F /  -19.8 °C 1031.0in /  34909.7hPa Calm     94% 0.0in /  0mm WeatherDisplay:10.37 W/m2 FEW
16:31 -2.8 °F /  -19.3 °C -3.6 °F /  -19.8 °C 1031.0in /  34909.7hPa ENE 0.3mph /  0.5km/h 1.9mph /  3.1km/h 94% 0.0in /  0mm WeatherDisplay:10.37 W/m2 FEW
16:38 -2.8 °F /  -19.3 °C -3.6 °F /  -19.8 °C 1031.0in /  34909.7hPa Calm     94% 0.0in /  0mm WeatherDisplay:10.37 W/m2 FEW
16:43 -2.8 °F /  -19.3 °C -3.6 °F /  -19.8 °C 1031.0in /  34909.7hPa ENE 0.2mph /  0.3km/h   94% 0.0in /  0mm WeatherDisplay:10.37 W/m2 FEW
16:58 -2.7 °F /  -19.3 °C -3.6 °F /  -19.8 °C 1031.0in /  34909.7hPa Calm     94% 0.0in /  0mm WeatherDisplay:10.37 W/m2 FEW
17:06 -2.7 °F /  -19.3 °C -3.5 °F /  -19.7 °C 1031.4in /  34923.2hPa ENE 0.2mph /  0.3km/h 1.9mph /  3.1km/h 94% 0.0in /  0mm WeatherDisplay:10.37 W/m2 FEW
17:11 -2.7 °F /  -19.3 °C -3.5 °F /  -19.7 °C 1031.4in /  34923.2hPa Calm     94% 0.0in /  0mm WeatherDisplay:10.37 W/m2 FEW
17:16 -2.7 °F /  -19.3 °C -3.5 °F /  -19.7 °C 1031.4in /  34923.2hPa Calm     94% 0.0in /  0mm WeatherDisplay:10.37 W/m2 FEW
17:21 -2.6 °F /  -19.2 °C -3.4 °F /  -19.7 °C 1031.4in /  34923.2hPa Calm     94% 0.0in /  0mm WeatherDisplay:10.37 W/m2 FEW
17:31 -2.6 °F /  -19.2 °C -3.4 °F /  -19.7 °C 1031.7in /  34933.4hPa Calm   1.9mph /  3.1km/h 94% 0.0in /  0mm WeatherDisplay:10.37 W/m2 FEW
17:53 -2.6 °F /  -19.2 °C -3.4 °F /  -19.7 °C 1031.7in /  34933.4hPa Calm   3.7mph /  6km/h 94% 0.0in /  0mm WeatherDisplay:10.37 W/m2 FEW
17:58 -2.6 °F /  -19.2 °C -3.4 °F /  -19.7 °C 1031.7in /  34933.4hPa ENE 0.5mph /  0.8km/h 5.6mph /  9km/h 94% 0.0in /  0mm WeatherDisplay:10.37 W/m2 FEW
18:03 -2.6 °F /  -19.2 °C -3.4 °F /  -19.7 °C 1031.7in /  34933.4hPa Calm     94% 0.0in /  0mm WeatherDisplay:10.37 W/m2 FEW
18:08 -2.6 °F /  -19.2 °C -3.4 °F /  -19.7 °C 1031.7in /  34933.4hPa ENE 0.5mph /  0.8km/h 3.7mph /  6km/h 94% 0.0in /  0mm WeatherDisplay:10.37 W/m2 FEW
18:13 -2.6 °F /  -19.2 °C -3.4 °F /  -19.7 °C 1031.7in /  34933.4hPa Calm     94% 0.0in /  0mm WeatherDisplay:10.37 W/m2 FEW
18:34 -2.6 °F /  -19.2 °C -3.4 °F /  -19.7 °C 1032.1in /  34946.9hPa Calm     94% 0.0in /  0mm WeatherDisplay:10.37 W/m2 FEW
18:39 -2.6 °F /  -19.2 °C -3.4 °F /  -19.7 °C 1032.1in /  34946.9hPa ENE 1.0mph /  1.6km/h 5.6mph /  9km/h 94% 0.0in /  0mm WeatherDisplay:10.37 W/m2 FEW
18:44 -2.6 °F /  -19.2 °C -3.4 °F /  -19.7 °C 1032.4in /  34957.1hPa ENE 3.1mph /  5km/h 5.6mph /  9km/h 94% 0.0in /  0mm WeatherDisplay:10.37 W/m2 FEW
18:49 -2.6 °F /  -19.2 °C -3.4 °F /  -19.7 °C 1032.4in /  34957.1hPa ENE 0.6mph /  1km/h 3.7mph /  6km/h 94% 0.0in /  0mm WeatherDisplay:10.37 W/m2 FEW
18:54 -2.6 °F /  -19.2 °C -3.4 °F /  -19.7 °C 1032.4in /  34957.1hPa Calm     94% 0.0in /  0mm WeatherDisplay:10.37 W/m2 FEW
18:59 -2.6 °F /  -19.2 °C -3.4 °F /  -19.7 °C 1032.4in /  34957.1hPa ENE 1.6mph /  2.6km/h   94% 0.0in /  0mm WeatherDisplay:10.37 W/m2 FEW
19:04 -2.6 °F /  -19.2 °C -3.4 °F /  -19.7 °C 1032.4in /  34957.1hPa ENE 0.3mph /  0.5km/h 3.7mph /  6km/h 94% 0.0in /  0mm WeatherDisplay:10.37 W/m2 FEW
19:18 -2.6 °F /  -19.2 °C -3.4 °F /  -19.7 °C 1032.4in /  34957.1hPa Calm     94% 0.0in /  0mm WeatherDisplay:10.37 W/m2 FEW
19:23 -2.5 °F /  -19.2 °C -3.5 °F /  -19.7 °C 1032.7in /  34967.2hPa ENE 1.0mph /  1.6km/h 3.7mph /  6km/h 93% 0.0in /  0mm WeatherDisplay:10.37 W/m2 FEW
19:31 -2.6 °F /  -19.2 °C -3.6 °F /  -19.8 °C 1032.7in /  34967.2hPa Calm     93% 0.0in /  0mm WeatherDisplay:10.37 W/m2 FEW
19:36 -2.6 °F /  -19.2 °C -3.6 °F /  -19.8 °C 1032.7in /  34967.2hPa Calm     93% 0.0in /  0mm WeatherDisplay:10.37 W/m2 FEW
19:46 -2.6 °F /  -19.2 °C -3.6 °F /  -19.8 °C 1032.7in /  34967.2hPa Calm     93% 0.0in /  0mm WeatherDisplay:10.37 W/m2 FEW
19:51 -2.6 °F /  -19.2 °C -3.6 °F /  -19.8 °C 1032.7in /  34967.2hPa Calm     93% 0.0in /  0mm WeatherDisplay:10.37 W/m2 FEW
19:56 -2.6 °F /  -19.2 °C -3.6 °F /  -19.8 °C 1033.1in /  34980.8hPa Calm     93% 0.0in /  0mm WeatherDisplay:10.37 W/m2 FEW
20:01 -2.6 °F /  -19.2 °C -3.6 °F /  -19.8 °C 1033.1in /  34980.8hPa Calm     93% 0.0in /  0mm WeatherDisplay:10.37 W/m2 FEW
20:06 -2.6 °F /  -19.2 °C -3.6 °F /  -19.8 °C 1033.1in /  34980.8hPa ENE 1.3mph /  2.1km/h 3.2mph /  5.1km/h 93% 0.0in /  0mm WeatherDisplay:10.37 W/m2 FEW
20:11 -2.6 °F /  -19.2 °C -3.6 °F /  -19.8 °C 1033.1in /  34980.8hPa Calm     93% 0.0in /  0mm WeatherDisplay:10.37 W/m2 FEW
20:16 -2.6 °F /  -19.2 °C -3.6 °F /  -19.8 °C 1033.1in /  34980.8hPa Calm     93% 0.0in /  0mm WeatherDisplay:10.37 W/m2 FEW
20:21 -2.6 °F /  -19.2 °C -3.6 °F /  -19.8 °C 1033.1in /  34980.8hPa Calm   5.6mph /  9km/h 93% 0.0in /  0mm WeatherDisplay:10.37 W/m2 FEW
20:26 -2.5 °F /  -19.2 °C -3.5 °F /  -19.7 °C 1033.1in /  34980.8hPa Calm     93% 0.0in /  0mm WeatherDisplay:10.37 W/m2 FEW
20:31 -2.5 °F /  -19.2 °C -3.5 °F /  -19.7 °C 1033.1in /  34980.8hPa ENE 2.6mph /  4.2km/h 5.6mph /  9km/h 93% 0.0in /  0mm WeatherDisplay:10.37 W/m2 FEW
20:36 -2.5 °F /  -19.2 °C -3.5 °F /  -19.7 °C 1033.4in /  34990.9hPa Calm     93% 0.0in /  0mm WeatherDisplay:10.37 W/m2 FEW
20:47 -2.5 °F /  -19.2 °C -3.5 °F /  -19.7 °C 1033.4in /  34990.9hPa Calm     93% 0.0in /  0mm WeatherDisplay:10.37 W/m2 FEW
20:56 -2.5 °F /  -19.2 °C -3.5 °F /  -19.7 °C 1033.4in /  34990.9hPa ENE 0.6mph /  1km/h 5.6mph /  9km/h 93% 0.0in /  0mm WeatherDisplay:10.37 W/m2 FEW
21:01 -2.5 °F /  -19.2 °C -3.5 °F /  -19.7 °C 1033.4in /  34990.9hPa Calm     93% 0.0in /  0mm WeatherDisplay:10.37 W/m2 FEW
21:06 -2.5 °F /  -19.2 °C -3.5 °F /  -19.7 °C 1033.4in /  34990.9hPa Calm     93% 0.0in /  0mm WeatherDisplay:10.37 W/m2 FEW
21:15 -2.5 °F /  -19.2 °C -3.5 °F /  -19.7 °C 1033.4in /  34990.9hPa ENE 0.8mph /  1.3km/h 3.7mph /  6km/h 93% 0.0in /  0mm WeatherDisplay:10.37 W/m2 FEW
21:23 -2.5 °F /  -19.2 °C -3.5 °F /  -19.7 °C 1033.4in /  34990.9hPa Calm   3.7mph /  6km/h 93% 0.0in /  0mm WeatherDisplay:10.37 W/m2 FEW
21:28 -2.5 °F /  -19.2 °C -3.5 °F /  -19.7 °C 1033.4in /  34990.9hPa Calm     93% 0.0in /  0mm WeatherDisplay:10.37 W/m2 FEW
21:36 -2.5 °F /  -19.2 °C -3.5 °F /  -19.7 °C 1033.4in /  34990.9hPa Calm   3.7mph /  6km/h 93% 0.0in /  0mm WeatherDisplay:10.37 W/m2 FEW
21:41 -2.5 °F /  -19.2 °C -3.5 °F /  -19.7 °C 1033.7in /  35001.1hPa Calm     93% 0.0in /  0mm WeatherDisplay:10.37 W/m2 FEW
21:48 -2.5 °F /  -19.2 °C -3.5 °F /  -19.7 °C 1033.7in /  35001.1hPa Calm     93% 0.0in /  0mm WeatherDisplay:10.37 W/m2 FEW
21:57 -2.5 °F /  -19.2 °C -3.5 °F /  -19.7 °C 1033.7in /  35001.1hPa Calm     93% 0.0in /  0mm WeatherDisplay:10.37 W/m2 FEW
22:02 -2.5 °F /  -19.2 °C -3.5 °F /  -19.7 °C 1034.1in /  35014.6hPa ENE 2.6mph /  4.2km/h 3.7mph /  6km/h 93% 0.0in /  0mm WeatherDisplay:10.37 W/m2 FEW
22:07 -2.5 °F /  -19.2 °C -3.5 °F /  -19.7 °C 1034.1in /  35014.6hPa Calm   7.4mph /  11.9km/h 93% 0.0in /  0mm WeatherDisplay:10.37 W/m2 FEW
22:12 -2.5 °F /  -19.2 °C -3.5 °F /  -19.7 °C 1034.1in /  35014.6hPa Calm     93% 0.0in /  0mm WeatherDisplay:10.37 W/m2 FEW
22:17 -2.5 °F /  -19.2 °C -3.5 °F /  -19.7 °C 1034.1in /  35014.6hPa Calm     93% 0.0in /  0mm WeatherDisplay:10.37 W/m2 FEW
22:22 -2.5 °F /  -19.2 °C -3.5 °F /  -19.7 °C 1034.1in /  35014.6hPa Calm     93% 0.0in /  0mm WeatherDisplay:10.37 W/m2 FEW
22:28 -2.5 °F /  -19.2 °C -3.5 °F /  -19.7 °C 1034.1in /  35014.6hPa Calm     93% 0.0in /  0mm WeatherDisplay:10.37 W/m2 FEW
22:35 -2.5 °F /  -19.2 °C -3.5 °F /  -19.7 °C 1034.4in /  35024.8hPa Calm     93% 0.0in /  0mm WeatherDisplay:10.37 W/m2 FEW
22:40 -2.5 °F /  -19.2 °C -3.5 °F /  -19.7 °C 1034.4in /  35024.8hPa Calm     93% 0.0in /  0mm WeatherDisplay:10.37 W/m2 FEW
22:45 -2.5 °F /  -19.2 °C -3.5 °F /  -19.7 °C 1034.4in /  35024.8hPa ENE 0.6mph /  1km/h 3.7mph /  6km/h 93% 0.0in /  0mm WeatherDisplay:10.37 W/m2 FEW
22:51 -2.5 °F /  -19.2 °C -3.5 °F /  -19.7 °C 1034.4in /  35024.8hPa Calm     93% 0.0in /  0mm WeatherDisplay:10.37 W/m2 FEW
22:56 -2.5 °F /  -19.2 °C -3.5 °F /  -19.7 °C 1034.4in /  35024.8hPa Calm     93% 0.0in /  0mm WeatherDisplay:10.37 W/m2 FEW
23:01 -2.5 °F /  -19.2 °C -3.5 °F /  -19.7 °C 1034.4in /  35024.8hPa Calm     93% 0.0in /  0mm WeatherDisplay:10.37 W/m2 FEW
23:06 -2.5 °F /  -19.2 °C -3.5 °F /  -19.7 °C 1034.4in /  35024.8hPa Calm     93% 0.0in /  0mm WeatherDisplay:10.37 W/m2 FEW
23:11 -2.5 °F /  -19.2 °C -3.5 °F /  -19.7 °C 1034.4in /  35024.8hPa Calm     93% 0.0in /  0mm WeatherDisplay:10.37 W/m2 FEW
23:16 -2.5 °F /  -19.2 °C -3.5 °F /  -19.7 °C 1034.4in /  35024.8hPa Calm     93% 0.0in /  0mm WeatherDisplay:10.37 W/m2 FEW
23:21 -2.5 °F /  -19.2 °C -3.5 °F /  -19.7 °C 1034.8in /  35038.3hPa Calm     93% 0.0in /  0mm WeatherDisplay:10.37 W/m2 FEW
23:28 -2.5 °F /  -19.2 °C -3.5 °F /  -19.7 °C 1034.8in /  35038.3hPa Calm     93% 0.0in /  0mm WeatherDisplay:10.37 W/m2 FEW
23:33 -2.5 °F /  -19.2 °C -3.5 °F /  -19.7 °C 1034.8in /  35038.3hPa Calm     93% 0.0in /  0mm WeatherDisplay:10.37 W/m2 FEW
23:43 -2.5 °F /  -19.2 °C -3.5 °F /  -19.7 °C 1034.8in /  35038.3hPa Calm     93% 0.0in /  0mm WeatherDisplay:10.37 W/m2 FEW
23:48 -2.4 °F /  -19.1 °C -3.4 °F /  -19.7 °C 1035.1in /  35048.5hPa Calm     93% 0.0in /  0mm WeatherDisplay:10.37 W/m2 FEW
23:57 -2.4 °F /  -19.1 °C -3.4 °F /  -19.7 °C 1035.1in /  35048.5hPa ENE 1.0mph /  1.6km/h 5.6mph /  9km/h 93% 0.0in /  0mm WeatherDisplay:10.37 W/m2 FEW
Tuulensuunkaari, Veikkola, Suomi
Compliments of Weather Underground - 2.25 mb